ADDS METAR Data INFO
IDs: Format: Raw Decoded Include TAF

Data at: 0738 UTC 21 Jul 2018

PAVD 210656Z AUTO 08009KT 10SM CLR 09/07 A3034 RMK AO2 SLP300 T00940067
PAVD 210556Z 06006KT 10SM CLR 11/08 A3033 RMK AO2 SLP296 T01110078 10178 20111 53003
PAVD 210456Z 11003KT 10SM CLR 17/12 A3033 RMK AO2 SLP293 T01670117
PAVD 210356Z 23005KT 10SM CLR 17/12 A3032 RMK AO2 SLP293 T01720117
PAVD 210256Z 21004KT 10SM FEW080 17/12 A3033 RMK AO2 SLP293 T01720117 56006
PAVD 210156Z 23008KT 10SM FEW050 17/11 A3033 RMK AO2 SLP294 T01720111
PAVD 210056Z 22007KT 10SM SCT030 17/11 A3034 RMK AO2 SLP297 T01720111
PAVD 202356Z 24006KT 10SM SCT030 SCT090 17/11 A3034 RMK AO2 SLP299 T01670111 10167 20128 58004
PAVD 202256Z 24004KT 10SM SCT028 BKN045 BKN120 16/11 A3035 RMK AO2 SLP303 T01610111
PAVD 202156Z 24004KT 10SM FEW023 BKN028 BKN055 16/11 A3036 RMK AO2 SLP303 T01560111
PAVD 202056Z 24004KT 7SM SCT023 OVC028 14/11 A3036 RMK AO2 SLP304 T01440111 58001
PAVD 201956Z 00000KT 7SM FEW015 BKN023 OVC028 14/11 A3036 RMK AO2 SLP305 T01390111
PAVD 201856Z 00000KT 7SM SCT010 OVC023 13/11 A3036 RMK AO2 SLP305 T01330111
PAVD 201756Z 00000KT 5SM BR FEW005 BKN010 OVC023 13/11 A3036 RMK AO2 SLP305 60000 T01280106 10128 20094 53004
PAVD 201656Z 00000KT 4SM BR FEW003 BKN010 OVC035 12/09 A3035 RMK AO2 SLP302 T01170094
PAVD 201556Z 07003KT 4SM BR FEW003 OVC010 11/09 A3035 RMK AO2 RAE56 SLP301 RAE41 P0000 T01110089
PAVD 201456Z 00000KT 5SM -RA BR OVC012 10/08 A3035 RMK AO2 RAB53 SLP301 RAB47 PCPN VRY LGT P0000 60000 T01000078 51005
PAVD 201411Z 07003KT 5SM BR OVC012 09/07 A3034 RMK AO2
PAVD 201356Z AUTO 07004KT 10SM OVC011 10/07 A3034 RMK AO2 SLP300 T01000072
PAVD 201256Z AUTO 08003KT 10SM OVC013 09/07 A3034 RMK AO2 SLP298 T00940072
PAVD 201156Z AUTO 07004KT 10SM OVC013 09/07 A3033 RMK AO2 SLP296 6//// 7//// T00940067 10128 20083 51006
PAVD 201056Z AUTO 06005KT 10SM BKN013 OVC023 10/08 A3033 RMK AO2 SLP294 T01000078
PAVD 201032Z AUTO 07004KT 10SM BKN011 OVC027 10/08 A3033 RMK AO2
PAVD 201015Z AUTO 07005KT 10SM FEW009 BKN027 09/08 A3033 RMK AO2
PAVD 200956Z AUTO 10SM BKN009 09/08 A3032 RMK AO2 SLP293 T00940078
PAVD 200935Z AUTO 06005KT 10SM BKN009 10/08 A3032 RMK AO2
PAVD 200915Z AUTO 08005KT 10SM FEW009 08/07 A3032 RMK AO2
PAVD 200856Z AUTO 07005KT 10SM CLR 09/08 A3031 RMK AO2 SLP290 T00940078 51012
PAVD 200756Z AUTO 06005KT 10SM CLR 09/08 A3030 RMK AO2 SLP287 T00940078 401830067
PAVD 200656Z AUTO 08005KT 10SM CLR 10/08 A3029 RMK AO2 SLP282 T01000078
PAVD 200556Z 09005KT 10SM FEW060 13/09 A3028 RMK AO2 SLP278 T01280089 10183 20128 53009
PAVD 200456Z VRB04KT 10SM FEW040 FEW100 17/11 A3027 RMK AO2 SLP274 T01670111
PAVD 200356Z 16003KT 10SM CLR 17/12 A3026 RMK AO2 SLP271 T01670117
PAVD 200251Z VRB03KT 20SM FEW045 FEW070 SCT250 16/11 A3026
PAVD 200156Z VRB05KT 10SM FEW045 FEW070 SCT250 18/12 A3025 RMK AO2 SLP268 T01830117
PAVD 200056Z 21005KT 10SM FEW030 FEW065 SCT250 18/11 A3026 RMK AO2 SLP270 T01780111
PAVD 192356Z 20006KT 10SM FEW030 FEW065 SCT250 17/11 A3026 RMK AO2 SLP271 T01720111 10172 20139 58004
PAVD 192256Z 23007KT 10SM FEW005 FEW045 BKN300 16/11 A3027 RMK AO2 SLP274 T01610111
PAVD 192156Z 24009KT 10SM FEW005 FEW045 BKN300 17/12 A3027 RMK AO2 SLP274 T01670117
PAVD 192056Z 23008KT 10SM FEW007 FEW040 SCT300 17/11 A3027 RMK AO2 SLP275 T01670111 55003
PAVD 191956Z 26004KT 10SM FEW004 FEW035 SCT300 16/11 A3027 RMK AO2 SLP274 T01560106